sensor_id;sensor_type;location;lat;lon;timestamp;P1;durP1;ratioP1;P2;durP2;ratioP2
40707;SDS011;26392;42.696;23.350;2022-10-30T00:00:13;21.13;;;10.70;;
40707;SDS011;26392;42.696;23.350;2022-10-30T00:02:39;24.92;;;11.55;;
40707;SDS011;26392;42.696;23.350;2022-10-30T00:05:04;30.20;;;12.98;;
40707;SDS011;26392;42.696;23.350;2022-10-30T00:07:30;28.35;;;11.38;;
40707;SDS011;26392;42.696;23.350;2022-10-30T00:09:55;23.50;;;11.65;;
40707;SDS011;26392;42.696;23.350;2022-10-30T00:12:21;23.00;;;11.98;;
40707;SDS011;26392;42.696;23.350;2022-10-30T00:14:46;25.75;;;11.55;;
40707;SDS011;26392;42.696;23.350;2022-10-30T00:17:12;28.85;;;12.20;;
40707;SDS011;26392;42.696;23.350;2022-10-30T00:19:37;27.60;;;13.25;;
40707;SDS011;26392;42.696;23.350;2022-10-30T00:22:02;26.27;;;12.10;;
40707;SDS011;26392;42.696;23.350;2022-10-30T00:24:28;23.60;;;11.88;;
40707;SDS011;26392;42.696;23.350;2022-10-30T00:26:54;32.33;;;11.50;;
40707;SDS011;26392;42.696;23.350;2022-10-30T00:29:19;24.05;;;12.23;;
40707;SDS011;26392;42.696;23.350;2022-10-30T00:31:47;194.05;;;99.35;;
40707;SDS011;26392;42.696;23.350;2022-10-30T00:34:13;229.95;;;122.55;;
40707;SDS011;26392;42.696;23.350;2022-10-30T00:36:39;110.57;;;58.05;;
40707;SDS011;26392;42.696;23.350;2022-10-30T00:39:04;72.50;;;32.05;;
40707;SDS011;26392;42.696;23.350;2022-10-30T00:41:30;72.18;;;30.33;;
40707;SDS011;26392;42.696;23.350;2022-10-30T00:43:55;64.55;;;29.98;;
40707;SDS011;26392;42.696;23.350;2022-10-30T00:46:28;64.95;;;31.23;;
40707;SDS011;26392;42.696;23.350;2022-10-30T00:51:38;67.15;;;31.73;;
40707;SDS011;26392;42.696;23.350;2022-10-30T00:54:10;71.90;;;34.30;;
40707;SDS011;26392;42.696;23.350;2022-10-30T00:56:38;87.47;;;39.47;;
40707;SDS011;26392;42.696;23.350;2022-10-30T00:59:05;57.50;;;28.35;;
40707;SDS011;26392;42.696;23.350;2022-10-30T01:01:35;47.58;;;23.75;;
40707;SDS011;26392;42.696;23.350;2022-10-30T01:04:05;48.78;;;21.58;;
40707;SDS011;26392;42.696;23.350;2022-10-30T01:06:31;42.88;;;20.30;;
40707;SDS011;26392;42.696;23.350;2022-10-30T01:08:59;39.95;;;19.35;;
40707;SDS011;26392;42.696;23.350;2022-10-30T01:11:26;40.20;;;19.55;;
40707;SDS011;26392;42.696;23.350;2022-10-30T01:13:52;42.83;;;19.88;;
40707;SDS011;26392;42.696;23.350;2022-10-30T01:16:28;44.58;;;19.85;;
40707;SDS011;26392;42.696;23.350;2022-10-30T01:19:11;45.60;;;20.17;;
40707;SDS011;26392;42.696;23.350;2022-10-30T01:27:18;38.53;;;18.83;;
40707;SDS011;26392;42.696;23.350;2022-10-30T01:30:06;49.58;;;20.55;;
40707;SDS011;26392;42.696;23.350;2022-10-30T01:35:51;43.00;;;20.02;;
40707;SDS011;26392;42.696;23.350;2022-10-30T01:38:31;42.83;;;20.92;;
40707;SDS011;26392;42.696;23.350;2022-10-30T01:41:02;42.20;;;21.35;;
40707;SDS011;26392;42.696;23.350;2022-10-30T01:43:28;41.20;;;19.15;;
40707;SDS011;26392;42.696;23.350;2022-10-30T01:46:06;52.00;;;21.50;;
40707;SDS011;26392;42.696;23.350;2022-10-30T01:54:31;47.28;;;21.48;;
40707;SDS011;26392;42.696;23.350;2022-10-30T02:02:30;34.55;;;18.00;;
40707;SDS011;26392;42.696;23.350;2022-10-30T02:04:57;43.35;;;19.92;;
40707;SDS011;26392;42.696;23.350;2022-10-30T02:07:22;39.78;;;19.90;;
40707;SDS011;26392;42.696;23.350;2022-10-30T02:09:49;36.35;;;18.95;;
40707;SDS011;26392;42.696;23.350;2022-10-30T02:12:16;38.83;;;19.15;;
40707;SDS011;26392;42.696;23.350;2022-10-30T02:14:44;50.60;;;20.00;;
40707;SDS011;26392;42.696;23.350;2022-10-30T02:17:16;37.43;;;18.30;;
40707;SDS011;26392;42.696;23.350;2022-10-30T02:19:43;36.33;;;18.65;;
40707;SDS011;26392;42.696;23.350;2022-10-30T02:22:08;38.35;;;17.65;;
40707;SDS011;26392;42.696;23.350;2022-10-30T02:24:34;40.60;;;18.38;;
40707;SDS011;26392;42.696;23.350;2022-10-30T02:27:00;36.53;;;18.20;;
40707;SDS011;26392;42.696;23.350;2022-10-30T02:29:26;36.20;;;18.67;;
40707;SDS011;26392;42.696;23.350;2022-10-30T02:31:51;34.67;;;18.77;;
40707;SDS011;26392;42.696;23.350;2022-10-30T02:34:16;41.45;;;18.38;;
40707;SDS011;26392;42.696;23.350;2022-10-30T02:36:42;43.63;;;20.52;;
40707;SDS011;26392;42.696;23.350;2022-10-30T02:39:07;39.35;;;19.08;;
40707;SDS011;26392;42.696;23.350;2022-10-30T02:41:33;37.60;;;19.63;;
40707;SDS011;26392;42.696;23.350;2022-10-30T02:43:59;40.22;;;19.25;;
40707;SDS011;26392;42.696;23.350;2022-10-30T02:46:24;37.80;;;18.85;;
40707;SDS011;26392;42.696;23.350;2022-10-30T02:48:49;40.67;;;17.52;;
40707;SDS011;26392;42.696;23.350;2022-10-30T02:51:15;44.00;;;19.27;;
40707;SDS011;26392;42.696;23.350;2022-10-30T02:53:41;38.05;;;18.38;;
40707;SDS011;26392;42.696;23.350;2022-10-30T02:56:07;42.17;;;18.10;;
40707;SDS011;26392;42.696;23.350;2022-10-30T02:58:34;37.45;;;17.40;;
40707;SDS011;26392;42.696;23.350;2022-10-30T03:01:10;31.88;;;17.65;;
40707;SDS011;26392;42.696;23.350;2022-10-30T03:03:37;46.03;;;22.88;;
40707;SDS011;26392;42.696;23.350;2022-10-30T03:06:03;47.50;;;21.65;;
40707;SDS011;26392;42.696;23.350;2022-10-30T03:08:30;42.75;;;19.40;;
40707;SDS011;26392;42.696;23.350;2022-10-30T03:11:30;52.00;;;21.00;;
40707;SDS011;26392;42.696;23.350;2022-10-30T03:13:48;55.78;;;23.90;;
40707;SDS011;26392;42.696;23.350;2022-10-30T03:16:23;52.72;;;24.30;;
40707;SDS011;26392;42.696;23.350;2022-10-30T03:18:50;60.70;;;26.50;;
40707;SDS011;26392;42.696;23.350;2022-10-30T03:21:17;60.35;;;26.75;;
40707;SDS011;26392;42.696;23.350;2022-10-30T03:23:45;61.80;;;26.92;;
40707;SDS011;26392;42.696;23.350;2022-10-30T03:26:10;55.03;;;26.23;;
40707;SDS011;26392;42.696;23.350;2022-10-30T03:28:36;60.30;;;25.00;;
40707;SDS011;26392;42.696;23.350;2022-10-30T03:31:03;44.58;;;22.45;;
40707;SDS011;26392;42.696;23.350;2022-10-30T03:33:33;46.10;;;22.13;;
40707;SDS011;26392;42.696;23.350;2022-10-30T03:35:59;48.85;;;22.10;;
40707;SDS011;26392;42.696;23.350;2022-10-30T03:38:25;53.40;;;23.40;;
40707;SDS011;26392;42.696;23.350;2022-10-30T03:40:51;59.55;;;27.38;;
40707;SDS011;26392;42.696;23.350;2022-10-30T03:43:17;216.63;;;94.40;;
40707;SDS011;26392;42.696;23.350;2022-10-30T03:45:47;110.20;;;48.95;;
40707;SDS011;26392;42.696;23.350;2022-10-30T03:48:13;66.00;;;29.52;;
40707;SDS011;26392;42.696;23.350;2022-10-30T03:50:39;74.88;;;32.58;;
40707;SDS011;26392;42.696;23.350;2022-10-30T03:53:04;76.05;;;33.03;;
40707;SDS011;26392;42.696;23.350;2022-10-30T03:55:30;87.55;;;38.10;;
40707;SDS011;26392;42.696;23.350;2022-10-30T03:57:55;109.38;;;49.45;;
40707;SDS011;26392;42.696;23.350;2022-10-30T04:00:20;88.88;;;37.00;;
40707;SDS011;26392;42.696;23.350;2022-10-30T04:02:46;78.32;;;36.35;;
40707;SDS011;26392;42.696;23.350;2022-10-30T04:05:13;74.15;;;31.85;;
40707;SDS011;26392;42.696;23.350;2022-10-30T04:07:40;65.95;;;30.98;;
40707;SDS011;26392;42.696;23.350;2022-10-30T04:10:06;56.67;;;26.23;;
40707;SDS011;26392;42.696;23.350;2022-10-30T04:12:32;51.85;;;23.02;;
40707;SDS011;26392;42.696;23.350;2022-10-30T04:14:57;58.15;;;28.98;;
40707;SDS011;26392;42.696;23.350;2022-10-30T04:17:22;53.35;;;24.50;;
40707;SDS011;26392;42.696;23.350;2022-10-30T04:19:48;54.67;;;25.48;;
40707;SDS011;26392;42.696;23.350;2022-10-30T04:22:13;53.47;;;23.05;;
40707;SDS011;26392;42.696;23.350;2022-10-30T04:24:38;37.15;;;19.45;;
40707;SDS011;26392;42.696;23.350;2022-10-30T04:27:04;42.58;;;21.05;;
40707;SDS011;26392;42.696;23.350;2022-10-30T04:29:29;52.00;;;23.20;;
40707;SDS011;26392;42.696;23.350;2022-10-30T04:31:55;50.83;;;22.83;;
40707;SDS011;26392;42.696;23.350;2022-10-30T04:34:20;51.90;;;22.90;;
40707;SDS011;26392;42.696;23.350;2022-10-30T04:36:46;43.10;;;19.60;;
40707;SDS011;26392;42.696;23.350;2022-10-30T04:39:11;49.75;;;21.23;;
40707;SDS011;26392;42.696;23.350;2022-10-30T04:41:37;46.17;;;22.27;;
40707;SDS011;26392;42.696;23.350;2022-10-30T04:44:02;34.63;;;16.77;;
40707;SDS011;26392;42.696;23.350;2022-10-30T04:46:28;38.05;;;16.55;;
40707;SDS011;26392;42.696;23.350;2022-10-30T04:48:53;36.17;;;15.43;;
40707;SDS011;26392;42.696;23.350;2022-10-30T04:51:18;31.67;;;15.60;;
40707;SDS011;26392;42.696;23.350;2022-10-30T04:53:44;30.80;;;14.82;;
40707;SDS011;26392;42.696;23.350;2022-10-30T04:56:09;28.35;;;12.93;;
40707;SDS011;26392;42.696;23.350;2022-10-30T04:58:35;25.00;;;12.52;;
40707;SDS011;26392;42.696;23.350;2022-10-30T05:01:01;35.20;;;14.90;;
40707;SDS011;26392;42.696;23.350;2022-10-30T05:03:28;29.60;;;14.23;;
40707;SDS011;26392;42.696;23.350;2022-10-30T05:05:57;33.65;;;14.65;;
40707;SDS011;26392;42.696;23.350;2022-10-30T05:08:28;43.90;;;18.50;;
40707;SDS011;26392;42.696;23.350;2022-10-30T05:10:54;26.67;;;12.75;;
40707;SDS011;26392;42.696;23.350;2022-10-30T05:13:20;29.00;;;12.55;;
40707;SDS011;26392;42.696;23.350;2022-10-30T05:15:46;30.63;;;13.07;;
40707;SDS011;26392;42.696;23.350;2022-10-30T05:18:11;31.95;;;15.30;;
40707;SDS011;26392;42.696;23.350;2022-10-30T05:20:37;40.22;;;16.08;;
40707;SDS011;26392;42.696;23.350;2022-10-30T05:23:03;35.00;;;15.27;;
40707;SDS011;26392;42.696;23.350;2022-10-30T05:25:28;34.42;;;16.98;;
40707;SDS011;26392;42.696;23.350;2022-10-30T05:27:57;32.08;;;15.23;;
40707;SDS011;26392;42.696;23.350;2022-10-30T05:30:28;34.83;;;15.38;;
40707;SDS011;26392;42.696;23.350;2022-10-30T05:32:58;46.58;;;18.30;;
40707;SDS011;26392;42.696;23.350;2022-10-30T05:35:30;42.63;;;17.67;;
40707;SDS011;26392;42.696;23.350;2022-10-30T05:38:00;61.50;;;25.73;;
40707;SDS011;26392;42.696;23.350;2022-10-30T05:40:27;58.97;;;25.20;;
40707;SDS011;26392;42.696;23.350;2022-10-30T05:42:53;44.70;;;20.70;;
40707;SDS011;26392;42.696;23.350;2022-10-30T05:45:18;52.83;;;22.98;;
40707;SDS011;26392;42.696;23.350;2022-10-30T05:47:52;62.95;;;29.45;;
40707;SDS011;26392;42.696;23.350;2022-10-30T05:50:23;72.03;;;30.60;;
40707;SDS011;26392;42.696;23.350;2022-10-30T05:52:49;57.78;;;24.55;;
40707;SDS011;26392;42.696;23.350;2022-10-30T05:55:14;48.83;;;20.73;;
40707;SDS011;26392;42.696;23.350;2022-10-30T05:57:39;33.78;;;16.35;;
40707;SDS011;26392;42.696;23.350;2022-10-30T06:00:05;33.90;;;16.90;;
40707;SDS011;26392;42.696;23.350;2022-10-30T06:02:31;36.92;;;16.70;;
40707;SDS011;26392;42.696;23.350;2022-10-30T06:04:57;31.95;;;16.08;;
40707;SDS011;26392;42.696;23.350;2022-10-30T06:07:22;37.47;;;18.05;;
40707;SDS011;26392;42.696;23.350;2022-10-30T06:09:47;36.78;;;17.85;;
40707;SDS011;26392;42.696;23.350;2022-10-30T06:12:13;31.90;;;16.58;;
40707;SDS011;26392;42.696;23.350;2022-10-30T06:14:38;37.38;;;17.55;;
40707;SDS011;26392;42.696;23.350;2022-10-30T06:17:04;33.15;;;18.20;;
40707;SDS011;26392;42.696;23.350;2022-10-30T06:19:29;45.50;;;20.67;;
40707;SDS011;26392;42.696;23.350;2022-10-30T06:21:54;41.13;;;20.33;;
40707;SDS011;26392;42.696;23.350;2022-10-30T06:24:20;51.88;;;23.00;;
40707;SDS011;26392;42.696;23.350;2022-10-30T06:26:45;45.72;;;21.05;;
40707;SDS011;26392;42.696;23.350;2022-10-30T06:29:10;42.50;;;21.15;;
40707;SDS011;26392;42.696;23.350;2022-10-30T06:31:36;38.10;;;21.05;;
40707;SDS011;26392;42.696;23.350;2022-10-30T06:34:01;37.83;;;20.75;;
40707;SDS011;26392;42.696;23.350;2022-10-30T06:36:27;45.03;;;21.95;;
40707;SDS011;26392;42.696;23.350;2022-10-30T06:38:52;55.08;;;21.73;;
40707;SDS011;26392;42.696;23.350;2022-10-30T06:41:18;43.13;;;21.75;;
40707;SDS011;26392;42.696;23.350;2022-10-30T06:43:43;56.88;;;26.67;;
40707;SDS011;26392;42.696;23.350;2022-10-30T06:46:08;44.88;;;23.40;;
40707;SDS011;26392;42.696;23.350;2022-10-30T06:48:34;46.05;;;21.05;;
40707;SDS011;26392;42.696;23.350;2022-10-30T06:50:59;50.95;;;25.13;;
40707;SDS011;26392;42.696;23.350;2022-10-30T06:53:27;48.53;;;23.40;;
40707;SDS011;26392;42.696;23.350;2022-10-30T06:55:56;46.10;;;24.05;;
40707;SDS011;26392;42.696;23.350;2022-10-30T06:58:24;45.35;;;21.40;;
40707;SDS011;26392;42.696;23.350;2022-10-30T07:00:50;46.25;;;23.88;;
40707;SDS011;26392;42.696;23.350;2022-10-30T07:03:15;51.40;;;23.63;;
40707;SDS011;26392;42.696;23.350;2022-10-30T07:05:41;52.30;;;23.00;;
40707;SDS011;26392;42.696;23.350;2022-10-30T07:08:06;57.30;;;23.17;;
40707;SDS011;26392;42.696;23.350;2022-10-30T07:10:50;47.75;;;22.65;;
40707;SDS011;26392;42.696;23.350;2022-10-30T07:13:16;40.50;;;20.48;;
40707;SDS011;26392;42.696;23.350;2022-10-30T07:15:42;42.95;;;20.70;;
40707;SDS011;26392;42.696;23.350;2022-10-30T07:18:07;38.20;;;20.30;;
40707;SDS011;26392;42.696;23.350;2022-10-30T07:20:33;36.78;;;20.10;;
40707;SDS011;26392;42.696;23.350;2022-10-30T07:22:59;54.97;;;21.50;;
40707;SDS011;26392;42.696;23.350;2022-10-30T07:25:25;32.78;;;19.83;;
40707;SDS011;26392;42.696;23.350;2022-10-30T07:27:51;38.33;;;19.80;;
40707;SDS011;26392;42.696;23.350;2022-10-30T07:30:18;38.88;;;19.40;;
40707;SDS011;26392;42.696;23.350;2022-10-30T07:32:45;40.88;;;19.27;;
40707;SDS011;26392;42.696;23.350;2022-10-30T07:35:11;30.08;;;17.70;;
40707;SDS011;26392;42.696;23.350;2022-10-30T07:37:38;44.92;;;18.58;;
40707;SDS011;26392;42.696;23.350;2022-10-30T07:40:04;32.80;;;18.38;;
40707;SDS011;26392;42.696;23.350;2022-10-30T07:42:31;30.92;;;17.25;;
40707;SDS011;26392;42.696;23.350;2022-10-30T07:44:57;37.60;;;17.13;;
40707;SDS011;26392;42.696;23.350;2022-10-30T07:47:23;42.00;;;18.17;;
40707;SDS011;26392;42.696;23.350;2022-10-30T07:49:49;34.70;;;16.85;;
40707;SDS011;26392;42.696;23.350;2022-10-30T07:52:14;36.92;;;17.58;;
40707;SDS011;26392;42.696;23.350;2022-10-30T07:54:39;34.20;;;18.45;;
40707;SDS011;26392;42.696;23.350;2022-10-30T07:57:05;35.03;;;18.00;;
40707;SDS011;26392;42.696;23.350;2022-10-30T07:59:30;36.38;;;17.73;;
40707;SDS011;26392;42.696;23.350;2022-10-30T08:01:55;31.02;;;17.27;;
40707;SDS011;26392;42.696;23.350;2022-10-30T08:04:21;34.22;;;17.15;;
40707;SDS011;26392;42.696;23.350;2022-10-30T08:06:46;27.58;;;15.18;;
40707;SDS011;26392;42.696;23.350;2022-10-30T08:09:12;32.08;;;17.33;;
40707;SDS011;26392;42.696;23.350;2022-10-30T08:11:37;29.33;;;16.85;;
40707;SDS011;26392;42.696;23.350;2022-10-30T08:14:02;31.55;;;16.70;;
40707;SDS011;26392;42.696;23.350;2022-10-30T08:16:28;34.83;;;16.70;;
40707;SDS011;26392;42.696;23.350;2022-10-30T08:18:53;30.23;;;16.77;;
40707;SDS011;26392;42.696;23.350;2022-10-30T08:21:19;26.27;;;13.57;;
40707;SDS011;26392;42.696;23.350;2022-10-30T08:23:44;30.45;;;15.10;;
40707;SDS011;26392;42.696;23.350;2022-10-30T08:26:10;32.08;;;15.13;;
40707;SDS011;26392;42.696;23.350;2022-10-30T08:28:35;28.75;;;15.80;;
40707;SDS011;26392;42.696;23.350;2022-10-30T08:31:00;24.35;;;14.38;;
40707;SDS011;26392;42.696;23.350;2022-10-30T08:33:26;25.25;;;14.50;;
40707;SDS011;26392;42.696;23.350;2022-10-30T08:35:53;21.58;;;13.57;;
40707;SDS011;26392;42.696;23.350;2022-10-30T08:38:21;28.73;;;15.13;;
40707;SDS011;26392;42.696;23.350;2022-10-30T08:40:46;26.38;;;14.15;;
40707;SDS011;26392;42.696;23.350;2022-10-30T08:43:12;30.38;;;14.88;;
40707;SDS011;26392;42.696;23.350;2022-10-30T08:45:38;28.33;;;15.20;;
40707;SDS011;26392;42.696;23.350;2022-10-30T08:48:04;30.02;;;15.18;;
40707;SDS011;26392;42.696;23.350;2022-10-30T08:50:31;31.83;;;15.82;;
40707;SDS011;26392;42.696;23.350;2022-10-30T08:53:01;23.70;;;13.45;;
40707;SDS011;26392;42.696;23.350;2022-10-30T08:55:28;28.60;;;13.90;;
40707;SDS011;26392;42.696;23.350;2022-10-30T08:57:54;27.55;;;13.95;;
40707;SDS011;26392;42.696;23.350;2022-10-30T09:00:20;25.65;;;14.75;;
40707;SDS011;26392;42.696;23.350;2022-10-30T09:02:45;27.80;;;13.70;;
40707;SDS011;26392;42.696;23.350;2022-10-30T09:05:10;29.30;;;14.73;;
40707;SDS011;26392;42.696;23.350;2022-10-30T09:07:36;22.05;;;13.00;;
40707;SDS011;26392;42.696;23.350;2022-10-30T09:10:02;24.92;;;12.93;;
40707;SDS011;26392;42.696;23.350;2022-10-30T09:12:28;29.15;;;15.15;;
40707;SDS011;26392;42.696;23.350;2022-10-30T09:14:53;30.15;;;14.80;;
40707;SDS011;26392;42.696;23.350;2022-10-30T09:17:19;26.17;;;14.88;;
40707;SDS011;26392;42.696;23.350;2022-10-30T09:19:44;23.13;;;12.98;;
40707;SDS011;26392;42.696;23.350;2022-10-30T09:22:10;26.05;;;12.52;;
40707;SDS011;26392;42.696;23.350;2022-10-30T09:24:35;23.80;;;13.85;;
40707;SDS011;26392;42.696;23.350;2022-10-30T09:27:02;23.00;;;13.32;;
40707;SDS011;26392;42.696;23.350;2022-10-30T09:29:28;25.13;;;13.88;;
40707;SDS011;26392;42.696;23.350;2022-10-30T09:31:55;24.27;;;13.65;;
40707;SDS011;26392;42.696;23.350;2022-10-30T09:34:21;24.00;;;13.75;;
40707;SDS011;26392;42.696;23.350;2022-10-30T09:36:46;23.95;;;13.05;;
40707;SDS011;26392;42.696;23.350;2022-10-30T09:39:13;25.70;;;13.60;;
40707;SDS011;26392;42.696;23.350;2022-10-30T09:49:53;23.85;;;12.07;;
40707;SDS011;26392;42.696;23.350;2022-10-30T09:55:28;20.70;;;11.60;;
40707;SDS011;26392;42.696;23.350;2022-10-30T10:00:45;18.20;;;12.18;;
40707;SDS011;26392;42.696;23.350;2022-10-30T10:03:16;18.75;;;10.90;;
40707;SDS011;26392;42.696;23.350;2022-10-30T10:06:11;20.02;;;10.38;;
40707;SDS011;26392;42.696;23.350;2022-10-30T10:08:43;15.18;;;10.18;;
40707;SDS011;26392;42.696;23.350;2022-10-30T10:14:13;20.55;;;10.52;;
40707;SDS011;26392;42.696;23.350;2022-10-30T10:16:39;16.80;;;10.00;;
40707;SDS011;26392;42.696;23.350;2022-10-30T10:21:58;14.02;;;8.23;;
40707;SDS011;26392;42.696;23.350;2022-10-30T10:24:29;14.20;;;8.02;;
40707;SDS011;26392;42.696;23.350;2022-10-30T10:27:09;16.25;;;8.50;;
40707;SDS011;26392;42.696;23.350;2022-10-30T10:37:57;12.65;;;7.00;;
40707;SDS011;26392;42.696;23.350;2022-10-30T10:43:27;12.07;;;6.17;;
40707;SDS011;26392;42.696;23.350;2022-10-30T10:51:33;12.02;;;6.35;;
40707;SDS011;26392;42.696;23.350;2022-10-30T10:54:00;14.00;;;6.63;;
40707;SDS011;26392;42.696;23.350;2022-10-30T10:56:35;13.30;;;6.30;;
40707;SDS011;26392;42.696;23.350;2022-10-30T10:59:08;13.20;;;6.45;;
40707;SDS011;26392;42.696;23.350;2022-10-30T11:04:31;9.05;;;5.15;;
40707;SDS011;26392;42.696;23.350;2022-10-30T11:07:05;11.80;;;5.28;;
40707;SDS011;26392;42.696;23.350;2022-10-30T11:09:45;9.43;;;5.45;;
40707;SDS011;26392;42.696;23.350;2022-10-30T11:12:24;11.73;;;4.95;;
40707;SDS011;26392;42.696;23.350;2022-10-30T11:14:51;8.35;;;5.05;;
40707;SDS011;26392;42.696;23.350;2022-10-30T11:17:21;9.23;;;4.53;;
40707;SDS011;26392;42.696;23.350;2022-10-30T11:19:53;9.75;;;4.50;;
40707;SDS011;26392;42.696;23.350;2022-10-30T11:25:21;7.15;;;4.07;;
40707;SDS011;26392;42.696;23.350;2022-10-30T11:27:58;5.53;;;3.97;;
40707;SDS011;26392;42.696;23.350;2022-10-30T11:30:25;6.47;;;4.45;;
40707;SDS011;26392;42.696;23.350;2022-10-30T11:32:53;9.02;;;3.85;;
40707;SDS011;26392;42.696;23.350;2022-10-30T11:35:20;7.63;;;3.95;;
40707;SDS011;26392;42.696;23.350;2022-10-30T11:37:47;5.95;;;4.30;;
40707;SDS011;26392;42.696;23.350;2022-10-30T11:40:18;9.48;;;4.28;;
40707;SDS011;26392;42.696;23.350;2022-10-30T11:43:03;11.48;;;4.78;;
40707;SDS011;26392;42.696;23.350;2022-10-30T11:45:31;5.63;;;3.53;;
40707;SDS011;26392;42.696;23.350;2022-10-30T11:48:00;7.30;;;4.40;;
40707;SDS011;26392;42.696;23.350;2022-10-30T11:50:27;10.63;;;4.03;;
40707;SDS011;26392;42.696;23.350;2022-10-30T11:53:00;6.10;;;3.78;;
40707;SDS011;26392;42.696;23.350;2022-10-30T11:55:38;6.55;;;3.60;;
40707;SDS011;26392;42.696;23.350;2022-10-30T11:58:05;7.82;;;4.00;;
40707;SDS011;26392;42.696;23.350;2022-10-30T12:00:34;6.50;;;3.72;;
40707;SDS011;26392;42.696;23.350;2022-10-30T12:03:01;6.85;;;3.40;;
40707;SDS011;26392;42.696;23.350;2022-10-30T12:05:32;6.20;;;3.20;;
40707;SDS011;26392;42.696;23.350;2022-10-30T12:13:30;6.07;;;3.00;;
40707;SDS011;26392;42.696;23.350;2022-10-30T12:18:29;4.55;;;2.60;;
40707;SDS011;26392;42.696;23.350;2022-10-30T12:20:56;6.45;;;2.72;;
40707;SDS011;26392;42.696;23.350;2022-10-30T12:23:23;4.40;;;2.80;;
40707;SDS011;26392;42.696;23.350;2022-10-30T12:25:51;4.78;;;2.58;;
40707;SDS011;26392;42.696;23.350;2022-10-30T12:28:21;8.48;;;3.22;;
40707;SDS011;26392;42.696;23.350;2022-10-30T12:33:37;4.67;;;2.80;;
40707;SDS011;26392;42.696;23.350;2022-10-30T12:36:05;4.65;;;2.63;;
40707;SDS011;26392;42.696;23.350;2022-10-30T12:44:08;4.93;;;2.85;;
40707;SDS011;26392;42.696;23.350;2022-10-30T12:52:15;8.80;;;3.08;;
40707;SDS011;26392;42.696;23.350;2022-10-30T12:54:56;5.18;;;2.45;;
40707;SDS011;26392;42.696;23.350;2022-10-30T12:57:29;4.03;;;2.57;;
40707;SDS011;26392;42.696;23.350;2022-10-30T13:00:09;4.50;;;2.47;;
40707;SDS011;26392;42.696;23.350;2022-10-30T13:05:05;5.63;;;2.43;;
40707;SDS011;26392;42.696;23.350;2022-10-30T13:07:43;4.18;;;2.00;;
40707;SDS011;26392;42.696;23.350;2022-10-30T13:12:56;4.20;;;1.85;;
40707;SDS011;26392;42.696;23.350;2022-10-30T13:15:29;7.00;;;2.30;;
40707;SDS011;26392;42.696;23.350;2022-10-30T13:18:00;4.05;;;2.22;;
40707;SDS011;26392;42.696;23.350;2022-10-30T13:20:37;5.20;;;2.65;;
40707;SDS011;26392;42.696;23.350;2022-10-30T13:23:10;4.13;;;2.03;;
40707;SDS011;26392;42.696;23.350;2022-10-30T13:25:50;5.32;;;2.17;;
40707;SDS011;26392;42.696;23.350;2022-10-30T13:28:21;12.43;;;3.67;;
40707;SDS011;26392;42.696;23.350;2022-10-30T13:31:00;7.57;;;2.53;;
40707;SDS011;26392;42.696;23.350;2022-10-30T13:38:42;6.13;;;2.20;;
40707;SDS011;26392;42.696;23.350;2022-10-30T13:54:39;4.90;;;2.17;;
40707;SDS011;26392;42.696;23.350;2022-10-30T13:57:16;5.93;;;2.45;;
40707;SDS011;26392;42.696;23.350;2022-10-30T13:59:55;7.25;;;2.92;;
40707;SDS011;26392;42.696;23.350;2022-10-30T14:02:38;7.10;;;2.58;;
40707;SDS011;26392;42.696;23.350;2022-10-30T14:08:27;5.85;;;2.33;;
40707;SDS011;26392;42.696;23.350;2022-10-30T14:11:10;5.30;;;2.58;;
40707;SDS011;26392;42.696;23.350;2022-10-30T14:13:53;6.15;;;2.40;;
40707;SDS011;26392;42.696;23.350;2022-10-30T14:16:33;6.53;;;2.55;;
40707;SDS011;26392;42.696;23.350;2022-10-30T14:21:28;2.88;;;1.90;;
40707;SDS011;26392;42.696;23.350;2022-10-30T14:24:01;6.10;;;2.00;;
40707;SDS011;26392;42.696;23.350;2022-10-30T14:26:39;6.68;;;2.25;;
40707;SDS011;26392;42.696;23.350;2022-10-30T14:34:41;4.38;;;2.50;;
40707;SDS011;26392;42.696;23.350;2022-10-30T14:37:10;6.72;;;3.10;;
40707;SDS011;26392;42.696;23.350;2022-10-30T14:39:40;7.18;;;2.58;;
40707;SDS011;26392;42.696;23.350;2022-10-30T14:42:10;5.55;;;2.67;;
40707;SDS011;26392;42.696;23.350;2022-10-30T14:51:09;5.70;;;2.65;;
40707;SDS011;26392;42.696;23.350;2022-10-30T15:01:45;9.73;;;3.63;;
40707;SDS011;26392;42.696;23.350;2022-10-30T15:04:21;8.48;;;3.83;;
40707;SDS011;26392;42.696;23.350;2022-10-30T15:07:07;8.85;;;3.40;;
40707;SDS011;26392;42.696;23.350;2022-10-30T15:10:01;5.80;;;3.03;;
40707;SDS011;26392;42.696;23.350;2022-10-30T15:15:20;7.47;;;3.38;;
40707;SDS011;26392;42.696;23.350;2022-10-30T15:17:46;8.90;;;3.58;;
40707;SDS011;26392;42.696;23.350;2022-10-30T15:20:20;9.45;;;3.30;;
40707;SDS011;26392;42.696;23.350;2022-10-30T15:22:48;9.70;;;3.50;;
40707;SDS011;26392;42.696;23.350;2022-10-30T15:25:18;7.13;;;3.63;;
40707;SDS011;26392;42.696;23.350;2022-10-30T15:27:48;7.10;;;3.65;;
40707;SDS011;26392;42.696;23.350;2022-10-30T15:30:17;16.95;;;3.05;;
40707;SDS011;26392;42.696;23.350;2022-10-30T15:32:45;6.03;;;3.22;;
40707;SDS011;26392;42.696;23.350;2022-10-30T15:38:02;8.05;;;3.28;;
40707;SDS011;26392;42.696;23.350;2022-10-30T15:40:30;8.07;;;3.60;;
40707;SDS011;26392;42.696;23.350;2022-10-30T15:43:01;6.57;;;3.65;;
40707;SDS011;26392;42.696;23.350;2022-10-30T15:45:31;12.88;;;3.50;;
40707;SDS011;26392;42.696;23.350;2022-10-30T15:50:44;6.47;;;3.67;;
40707;SDS011;26392;42.696;23.350;2022-10-30T15:53:23;7.72;;;3.45;;
40707;SDS011;26392;42.696;23.350;2022-10-30T15:55:53;6.20;;;3.50;;
40707;SDS011;26392;42.696;23.350;2022-10-30T15:58:22;10.10;;;3.55;;
40707;SDS011;26392;42.696;23.350;2022-10-30T16:00:59;9.98;;;4.00;;
40707;SDS011;26392;42.696;23.350;2022-10-30T16:03:25;10.68;;;4.20;;
40707;SDS011;26392;42.696;23.350;2022-10-30T16:08:51;9.35;;;4.00;;
40707;SDS011;26392;42.696;23.350;2022-10-30T16:11:17;12.55;;;5.40;;
40707;SDS011;26392;42.696;23.350;2022-10-30T16:13:45;13.05;;;6.18;;
40707;SDS011;26392;42.696;23.350;2022-10-30T16:16:12;7.68;;;4.57;;
40707;SDS011;26392;42.696;23.350;2022-10-30T16:18:41;7.97;;;3.90;;
40707;SDS011;26392;42.696;23.350;2022-10-30T16:21:08;9.27;;;4.30;;
40707;SDS011;26392;42.696;23.350;2022-10-30T16:23:41;7.72;;;4.07;;
40707;SDS011;26392;42.696;23.350;2022-10-30T16:26:34;15.23;;;4.82;;
40707;SDS011;26392;42.696;23.350;2022-10-30T16:31:40;9.13;;;4.22;;
40707;SDS011;26392;42.696;23.350;2022-10-30T16:34:09;8.90;;;4.45;;
40707;SDS011;26392;42.696;23.350;2022-10-30T16:36:41;9.93;;;4.70;;
40707;SDS011;26392;42.696;23.350;2022-10-30T16:39:08;7.72;;;4.00;;
40707;SDS011;26392;42.696;23.350;2022-10-30T16:41:38;8.55;;;4.68;;
40707;SDS011;26392;42.696;23.350;2022-10-30T16:44:13;12.13;;;5.40;;
40707;SDS011;26392;42.696;23.350;2022-10-30T16:46:45;10.73;;;4.07;;
40707;SDS011;26392;42.696;23.350;2022-10-30T16:49:21;9.13;;;4.47;;
40707;SDS011;26392;42.696;23.350;2022-10-30T16:51:51;8.70;;;4.68;;
40707;SDS011;26392;42.696;23.350;2022-10-30T16:54:25;8.70;;;4.18;;